Time;durP1;ratioP1;P1;durP2;ratioP2;P2;SDS_P1;SDS_P2;PMS_P1;PMS_P2;Temp;Humidity;BMP_temperature;BMP_pressure;BME280_temperature;BME280_humidity;BME280_pressure;Samples;Min_cycle;Max_cycle;Signal;HPM_P1;HPM_P2
2021/08/13 00:00:39;;;;;;;;;;;17.00;99.90;;;;;;5115974;27;19923;-89
2021/08/13 00:03:05;;;;;;;;;;;17.00;99.90;;;;;;5115451;27;19926;-89
2021/08/13 00:05:30;;;;;;;;;;;16.90;99.90;;;;;;5159481;27;20401;-89
2021/08/13 00:07:56;;;;;;;;;;;16.90;99.90;;;;;;5139100;27;19943;-89
2021/08/13 00:10:22;;;;;;;;;;;16.90;99.90;;;;;;5156778;27;19975;-89
2021/08/13 00:12:48;;;;;;;;;;;16.80;99.90;;;;;;5157040;27;20002;-89
2021/08/13 00:15:13;;;;;;;;;;;16.80;99.90;;;;;;5174925;27;20060;-88
2021/08/13 00:17:39;;;;;;;;;;;16.80;99.90;;;;;;5156767;27;20444;-89
2021/08/13 00:20:05;;;;;;;;;;;16.80;99.90;;;;;;5147828;27;19930;-89
2021/08/13 00:22:34;;;;;;;;;;;16.80;99.90;;;;;;5153669;27;19926;-89
2021/08/13 00:25:00;;;;;;;;;;;16.80;99.90;;;;;;5118975;27;19919;-88
2021/08/13 00:27:25;;;;;;;;;;;16.90;99.90;;;;;;5135677;27;20025;-89
2021/08/13 00:29:51;;;;;;;;;;;16.80;99.90;;;;;;5147833;27;20388;-89
2021/08/13 00:32:17;;;;;;;;;;;16.80;99.90;;;;;;5138965;27;19923;-89
2021/08/13 00:34:43;;;;;;;;;;;16.90;99.90;;;;;;5156783;27;19926;-89
2021/08/13 00:37:08;;;;;;;;;;;16.80;99.90;;;;;;5156423;27;20365;-89
2021/08/13 00:39:34;;;;;;;;;;;16.80;99.90;;;;;;5139219;27;20009;-88
2021/08/13 00:42:00;;;;;;;;;;;16.80;99.90;;;;;;5155830;27;19998;-89
2021/08/13 00:44:25;;;;;;;;;;;16.80;99.90;;;;;;5146876;27;19971;-89
2021/08/13 00:46:51;;;;;;;;;;;16.80;99.90;;;;;;5135080;27;20426;-89
2021/08/13 00:49:17;;;;;;;;;;;16.80;99.90;;;;;;5117846;27;20298;-89
2021/08/13 00:51:43;;;;;;;;;;;16.80;99.90;;;;;;5135167;27;20409;-89
2021/08/13 00:54:09;;;;;;;;;;;16.80;99.90;;;;;;5118407;27;20406;-89
2021/08/13 00:56:34;;;;;;;;;;;16.80;99.90;;;;;;5134291;27;19915;-89
2021/08/13 00:59:01;;;;;;;;;;;16.80;99.90;;;;;;5118206;27;20390;-89
2021/08/13 01:01:27;;;;;;;;;;;16.80;99.90;;;;;;5135087;27;20230;-89
2021/08/13 01:03:52;;;;;;;;;;;16.80;99.90;;;;;;5127534;27;20462;-89
2021/08/13 01:06:19;;;;;;;;;;;16.80;99.90;;;;;;5138861;27;19929;-89
2021/08/13 01:08:45;;;;;;;;;;;16.80;99.90;;;;;;5138493;27;19923;-89
2021/08/13 01:11:32;;;;;;;;;;;16.80;99.90;;;;;;5174021;27;19919;-89
2021/08/13 01:14:09;;;;;;;;;;;16.80;99.90;;;;;;5141454;27;19962;-89
2021/08/13 01:16:36;;;;;;;;;;;16.80;99.90;;;;;;5117445;27;19923;-89
2021/08/13 01:19:06;;;;;;;;;;;16.80;99.90;;;;;;5152466;27;20009;-89
2021/08/13 01:22:01;;;;;;;;;;;16.80;99.90;;;;;;5134644;27;20378;-88
2021/08/13 01:24:29;;;;;;;;;;;16.80;99.90;;;;;;5130665;27;20371;-89
2021/08/13 01:27:00;;;;;;;;;;;16.80;99.90;;;;;;5134680;27;19929;-88
2021/08/13 01:29:33;;;;;;;;;;;16.80;99.90;;;;;;5117703;27;19926;-89
2021/08/13 01:32:12;;;;;;;;;;;16.80;99.90;;;;;;5152549;27;19985;-89
2021/08/13 01:34:43;;;;;;;;;;;16.80;99.90;;;;;;5152917;27;19923;-89
2021/08/13 01:37:09;;;;;;;;;;;16.80;99.90;;;;;;5134331;27;19970;-88
2021/08/13 01:39:35;;;;;;;;;;;16.90;99.90;;;;;;5117160;27;19919;-89
2021/08/13 01:42:02;;;;;;;;;;;16.90;99.90;;;;;;5152553;27;19971;-89
2021/08/13 01:44:28;;;;;;;;;;;16.90;99.90;;;;;;5152665;27;19971;-89
2021/08/13 01:46:55;;;;;;;;;;;16.90;99.90;;;;;;5134206;27;20374;-88
2021/08/13 01:49:22;;;;;;;;;;;16.90;99.90;;;;;;5141607;27;19922;-89
2021/08/13 01:51:48;;;;;;;;;;;16.90;99.90;;;;;;5148134;27;20404;-89
2021/08/13 01:54:14;;;;;;;;;;;16.90;99.90;;;;;;5134371;27;19942;-89
2021/08/13 01:56:41;;;;;;;;;;;16.90;99.90;;;;;;5152545;27;19919;-88
2021/08/13 01:59:06;;;;;;;;;;;16.90;99.90;;;;;;5133735;27;19919;-89
2021/08/13 02:01:32;;;;;;;;;;;16.90;99.90;;;;;;5152225;27;19938;-89
2021/08/13 02:04:00;;;;;;;;;;;16.90;99.90;;;;;;5151934;27;20042;-89
2021/08/13 02:06:28;;;;;;;;;;;16.80;99.90;;;;;;5116594;27;19929;-89
2021/08/13 02:08:54;;;;;;;;;;;16.80;99.90;;;;;;5115605;27;19927;-89
2021/08/13 02:11:20;;;;;;;;;;;16.80;99.90;;;;;;5151689;27;19930;-88
2021/08/13 02:13:45;;;;;;;;;;;16.80;99.90;;;;;;5116492;27;19923;-89
2021/08/13 02:16:16;;;;;;;;;;;16.70;99.90;;;;;;5133618;27;20385;-89
2021/08/13 02:18:47;;;;;;;;;;;16.70;99.90;;;;;;5132930;27;20349;-89
2021/08/13 02:21:14;;;;;;;;;;;16.70;99.90;;;;;;5133321;27;19976;-88
2021/08/13 02:23:40;;;;;;;;;;;16.70;99.90;;;;;;5152002;27;20468;-89
2021/08/13 02:26:06;;;;;;;;;;;16.60;99.90;;;;;;5153674;27;19983;-89
2021/08/13 02:28:32;;;;;;;;;;;16.60;99.90;;;;;;5153881;27;19923;-89
2021/08/13 02:30:57;;;;;;;;;;;16.60;99.90;;;;;;5149551;27;19929;-89
2021/08/13 02:33:23;;;;;;;;;;;16.60;99.90;;;;;;5135878;27;19919;-89
2021/08/13 02:35:50;;;;;;;;;;;16.60;99.90;;;;;;5154041;27;19961;-89
2021/08/13 02:38:19;;;;;;;;;;;16.60;99.90;;;;;;5153960;27;19922;-89
2021/08/13 02:40:55;;;;;;;;;;;16.60;99.90;;;;;;5154391;27;19999;-89
2021/08/13 02:43:26;;;;;;;;;;;16.60;99.90;;;;;;5153976;27;20014;-89
2021/08/13 02:45:53;;;;;;;;;;;16.60;99.90;;;;;;5172660;27;19926;-89
2021/08/13 02:48:19;;;;;;;;;;;16.60;99.90;;;;;;5170830;27;20310;-89
2021/08/13 02:50:46;;;;;;;;;;;16.60;99.90;;;;;;5116170;27;19932;-89
2021/08/13 02:53:17;;;;;;;;;;;16.60;99.90;;;;;;5133011;27;19930;-89
2021/08/13 02:55:48;;;;;;;;;;;16.60;99.90;;;;;;5116406;27;19922;-89
2021/08/13 02:58:15;;;;;;;;;;;16.60;99.90;;;;;;5133100;27;19954;-89
2021/08/13 03:00:42;;;;;;;;;;;16.60;99.90;;;;;;5132846;27;19969;-89
2021/08/13 03:03:09;;;;;;;;;;;16.60;99.90;;;;;;5169223;27;20377;-89
2021/08/13 03:05:36;;;;;;;;;;;16.60;99.90;;;;;;5172284;27;19930;-89
2021/08/13 03:08:02;;;;;;;;;;;16.60;99.90;;;;;;5153287;27;20337;-89
2021/08/13 03:10:28;;;;;;;;;;;16.60;99.90;;;;;;5136603;27;19934;-89
2021/08/13 03:12:54;;;;;;;;;;;16.60;99.90;;;;;;5153881;27;19961;-89
2021/08/13 03:15:20;;;;;;;;;;;16.70;99.90;;;;;;5136440;27;19918;-89
2021/08/13 03:17:47;;;;;;;;;;;16.70;99.90;;;;;;5153253;27;20366;-89
2021/08/13 03:20:13;;;;;;;;;;;16.60;99.90;;;;;;5173577;27;19923;-89
2021/08/13 03:22:39;;;;;;;;;;;16.60;99.90;;;;;;5157401;27;20448;-89
2021/08/13 03:25:05;;;;;;;;;;;16.60;99.90;;;;;;5157913;27;20017;-89
2021/08/13 03:27:32;;;;;;;;;;;16.60;99.90;;;;;;5158071;27;19923;-88
2021/08/13 03:29:58;;;;;;;;;;;16.60;99.90;;;;;;5157711;27;19930;-89
2021/08/13 03:32:24;;;;;;;;;;;16.60;99.90;;;;;;5120333;27;19923;-89
2021/08/13 03:34:49;;;;;;;;;;;16.60;99.90;;;;;;5155352;27;19919;-89
2021/08/13 03:37:15;;;;;;;;;;;16.60;99.90;;;;;;5119848;27;19930;-89
2021/08/13 03:39:41;;;;;;;;;;;16.60;99.90;;;;;;5136865;27;20392;-89
2021/08/13 03:42:07;;;;;;;;;;;16.60;99.90;;;;;;5133231;27;19964;-89
2021/08/13 03:44:33;;;;;;;;;;;16.60;99.90;;;;;;5155023;27;19931;-89
2021/08/13 03:46:59;;;;;;;;;;;16.60;99.90;;;;;;5155150;27;19923;-88
2021/08/13 03:49:24;;;;;;;;;;;16.50;99.90;;;;;;5161944;27;20360;-89
2021/08/13 03:51:50;;;;;;;;;;;16.50;99.90;;;;;;5126665;27;19934;-89
2021/08/13 03:54:16;;;;;;;;;;;16.50;99.90;;;;;;5141165;27;19957;-90
2021/08/13 03:56:42;;;;;;;;;;;16.50;99.90;;;;;;5121126;27;19919;-89
2021/08/13 03:59:07;;;;;;;;;;;16.50;99.90;;;;;;5118692;27;20422;-88
2021/08/13 04:01:33;;;;;;;;;;;16.50;99.90;;;;;;5136273;27;19919;-89
2021/08/13 04:04:02;;;;;;;;;;;16.40;99.90;;;;;;5158362;27;19948;-89
2021/08/13 04:06:28;;;;;;;;;;;16.40;99.90;;;;;;5105081;27;19930;-88
2021/08/13 04:08:53;;;;;;;;;;;16.40;99.90;;;;;;5118939;27;19919;-89
2021/08/13 04:11:19;;;;;;;;;;;16.40;99.90;;;;;;5136288;27;20382;-88
2021/08/13 04:13:46;;;;;;;;;;;16.40;99.90;;;;;;5159754;27;19919;-87
2021/08/13 04:16:11;;;;;;;;;;;16.40;99.90;;;;;;5141206;27;19919;-88
2021/08/13 04:18:37;;;;;;;;;;;16.40;99.90;;;;;;5135264;27;19923;-88
2021/08/13 04:21:03;;;;;;;;;;;16.30;99.90;;;;;;5155145;27;20385;-88
2021/08/13 04:23:28;;;;;;;;;;;16.40;99.90;;;;;;5153030;27;19934;-88
2021/08/13 04:25:54;;;;;;;;;;;16.30;99.90;;;;;;5172799;27;19926;-88
2021/08/13 04:28:23;;;;;;;;;;;16.30;99.90;;;;;;5172839;27;20019;-88
2021/08/13 04:30:49;;;;;;;;;;;16.30;99.90;;;;;;5153229;27;20027;-88
2021/08/13 04:33:15;;;;;;;;;;;16.30;99.90;;;;;;5172062;27;19919;-88
2021/08/13 04:35:40;;;;;;;;;;;16.30;99.90;;;;;;5154278;27;20389;-88
2021/08/13 04:38:07;;;;;;;;;;;16.30;99.90;;;;;;5155823;27;20279;-88
2021/08/13 04:40:33;;;;;;;;;;;16.40;99.90;;;;;;5174384;27;19930;-88
2021/08/13 04:42:59;;;;;;;;;;;16.40;99.90;;;;;;5174454;27;20419;-88
2021/08/13 04:45:25;;;;;;;;;;;16.40;99.90;;;;;;5174526;27;19930;-88
2021/08/13 04:47:51;;;;;;;;;;;16.50;99.90;;;;;;5173084;27;20381;-87
2021/08/13 04:50:21;;;;;;;;;;;16.50;99.90;;;;;;5153243;27;19923;-88
2021/08/13 04:52:49;;;;;;;;;;;16.60;99.90;;;;;;5153161;27;20438;-87
2021/08/13 04:55:22;;;;;;;;;;;16.60;99.90;;;;;;5171876;27;19933;-88
2021/08/13 04:57:48;;;;;;;;;;;16.60;99.90;;;;;;5173989;27;19923;-88
2021/08/13 05:00:16;;;;;;;;;;;16.70;99.90;;;;;;5155915;27;19967;-88
2021/08/13 05:02:42;;;;;;;;;;;16.70;99.90;;;;;;5173574;27;19923;-88
2021/08/13 05:05:17;;;;;;;;;;;16.70;99.90;;;;;;5152012;27;20346;-88
2021/08/13 05:07:43;;;;;;;;;;;16.70;99.90;;;;;;5153250;27;20025;-88
2021/08/13 05:10:13;;;;;;;;;;;16.80;99.90;;;;;;5153394;27;19921;-88
2021/08/13 05:12:39;;;;;;;;;;;16.80;99.90;;;;;;5152959;27;19923;-88
2021/08/13 05:15:06;;;;;;;;;;;16.80;99.90;;;;;;5152807;27;19926;-88
2021/08/13 05:17:33;;;;;;;;;;;16.80;99.90;;;;;;5153007;27;19968;-88
2021/08/13 05:19:58;;;;;;;;;;;16.80;99.90;;;;;;5152428;27;19965;-88
2021/08/13 05:22:32;;;;;;;;;;;16.90;99.90;;;;;;5143851;27;19934;-88
2021/08/13 05:25:00;;;;;;;;;;;16.90;99.90;;;;;;5131008;27;20103;-88
2021/08/13 05:27:33;;;;;;;;;;;16.90;99.90;;;;;;5130779;27;19930;-88
2021/08/13 05:29:59;;;;;;;;;;;16.90;99.90;;;;;;5113832;27;19923;-87
2021/08/13 05:32:27;;;;;;;;;;;17.00;99.90;;;;;;5111490;27;19919;-87
2021/08/13 05:34:53;;;;;;;;;;;17.00;99.90;;;;;;5113772;27;19923;-88
2021/08/13 05:37:19;;;;;;;;;;;17.10;99.90;;;;;;5130814;27;20453;-88
2021/08/13 05:40:02;;;;;;;;;;;17.10;99.90;;;;;;5130437;27;19968;-88
2021/08/13 05:42:27;;;;;;;;;;;17.20;99.90;;;;;;5131064;27;19923;-88
2021/08/13 05:44:53;;;;;;;;;;;17.20;99.90;;;;;;5131727;27;20290;-88
2021/08/13 05:47:19;;;;;;;;;;;17.30;99.90;;;;;;5131238;27;20282;-88
2021/08/13 05:49:44;;;;;;;;;;;17.30;99.90;;;;;;5132034;27;19930;-88
2021/08/13 05:52:10;;;;;;;;;;;17.40;99.90;;;;;;5151719;27;19926;-88
2021/08/13 05:54:36;;;;;;;;;;;17.40;99.90;;;;;;5150630;27;20393;-88
2021/08/13 05:57:02;;;;;;;;;;;17.50;99.90;;;;;;5150964;27;19966;-88
2021/08/13 05:59:28;;;;;;;;;;;17.50;99.90;;;;;;5149013;27;19934;-92
2021/08/13 06:01:53;;;;;;;;;;;17.60;99.90;;;;;;5141138;27;19919;-92
2021/08/13 06:04:19;;;;;;;;;;;17.60;99.90;;;;;;5122980;27;20021;-93
2021/08/13 06:06:45;;;;;;;;;;;17.70;99.90;;;;;;5123596;27;20374;-92
2021/08/13 06:09:11;;;;;;;;;;;17.70;99.90;;;;;;5124207;27;19927;-93
2021/08/13 06:11:36;;;;;;;;;;;17.70;99.90;;;;;;5115206;27;19972;-93
2021/08/13 06:14:02;;;;;;;;;;;17.80;99.90;;;;;;5122869;27;20483;-92
2021/08/13 06:16:28;;;;;;;;;;;17.80;99.90;;;;;;5132821;27;19919;-86
2021/08/13 06:18:53;;;;;;;;;;;17.80;99.90;;;;;;5140206;27;19972;-86
2021/08/13 06:21:19;;;;;;;;;;;17.80;99.90;;;;;;5130117;27;20060;-86
2021/08/13 06:23:45;;;;;;;;;;;17.90;99.90;;;;;;5147294;27;19923;-86
2021/08/13 06:26:10;;;;;;;;;;;17.90;99.90;;;;;;5113823;27;19927;-86
2021/08/13 06:28:36;;;;;;;;;;;17.90;99.90;;;;;;5134686;27;19932;-86
2021/08/13 06:31:03;;;;;;;;;;;17.90;99.90;;;;;;5150875;27;19927;-86
2021/08/13 06:33:29;;;;;;;;;;;18.00;99.90;;;;;;5144312;27;19923;-86
2021/08/13 06:35:54;;;;;;;;;;;18.10;99.90;;;;;;5130938;27;20375;-86
2021/08/13 06:38:20;;;;;;;;;;;18.10;99.90;;;;;;5128924;27;20002;-87
2021/08/13 06:40:46;;;;;;;;;;;18.20;99.90;;;;;;5130165;27;19919;-86
2021/08/13 06:43:12;;;;;;;;;;;18.20;99.90;;;;;;5128992;27;19923;-86
2021/08/13 06:45:37;;;;;;;;;;;18.20;99.90;;;;;;5142194;27;19923;-86
2021/08/13 06:48:03;;;;;;;;;;;18.30;99.90;;;;;;5151135;27;19922;-86
2021/08/13 06:50:29;;;;;;;;;;;18.40;99.90;;;;;;5145081;27;19924;-86
2021/08/13 06:52:55;;;;;;;;;;;18.40;99.90;;;;;;5138564;27;20009;-90
2021/08/13 06:55:20;;;;;;;;;;;18.50;99.90;;;;;;5145511;27;20362;-89
2021/08/13 06:57:46;;;;;;;;;;;18.60;99.90;;;;;;5136050;27;19919;-88
2021/08/13 07:00:13;;;;;;;;;;;18.60;99.90;;;;;;5129185;27;20344;-89
2021/08/13 07:02:39;;;;;;;;;;;18.70;99.90;;;;;;5130690;27;20017;-90
2021/08/13 07:05:05;;;;;;;;;;;18.70;99.90;;;;;;5146379;27;20374;-89
2021/08/13 07:07:31;;;;;;;;;;;18.70;99.90;;;;;;5148239;27;20375;-90
2021/08/13 07:09:57;;;;;;;;;;;18.80;99.90;;;;;;5129120;28;19915;-93
2021/08/13 07:12:23;;;;;;;;;;;18.80;99.90;;;;;;5113460;28;19924;-92
2021/08/13 07:14:49;;;;;;;;;;;18.80;99.90;;;;;;5130398;28;19926;-91
2021/08/13 07:17:15;;;;;;;;;;;18.80;99.90;;;;;;5096467;28;19976;-91
2021/08/13 07:19:40;;;;;;;;;;;18.80;99.90;;;;;;5130334;28;19920;-92
2021/08/13 07:22:06;;;;;;;;;;;18.90;99.90;;;;;;5114496;28;19973;-93
2021/08/13 07:24:32;;;;;;;;;;;18.90;99.90;;;;;;5104562;27;19915;-89
2021/08/13 07:26:58;;;;;;;;;;;18.90;99.90;;;;;;5136355;27;19939;-90
2021/08/13 07:29:24;;;;;;;;;;;18.90;99.90;;;;;;5137688;27;20304;-89
2021/08/13 07:31:53;;;;;;;;;;;19.00;99.90;;;;;;5138658;27;20409;-90
2021/08/13 07:34:19;;;;;;;;;;;19.00;99.90;;;;;;5111734;27;19930;-89
2021/08/13 07:36:45;;;;;;;;;;;19.00;99.90;;;;;;5137283;27;20293;-90
2021/08/13 07:39:10;;;;;;;;;;;19.00;99.90;;;;;;5123479;27;19919;-88
2021/08/13 07:41:36;;;;;;;;;;;19.00;99.90;;;;;;5106998;28;20378;-87
2021/08/13 07:44:02;;;;;;;;;;;19.00;99.90;;;;;;5120572;27;20031;-86
2021/08/13 07:46:27;;;;;;;;;;;18.90;99.90;;;;;;5122155;27;20331;-88
2021/08/13 07:48:54;;;;;;;;;;;18.90;99.90;;;;;;5131391;27;19926;-86
2021/08/13 07:51:20;;;;;;;;;;;18.90;99.90;;;;;;5142651;27;20382;-86
2021/08/13 07:53:46;;;;;;;;;;;18.90;99.90;;;;;;5142351;27;19919;-88
2021/08/13 07:56:11;;;;;;;;;;;18.90;99.90;;;;;;5126752;27;19930;-87
2021/08/13 07:58:37;;;;;;;;;;;18.90;99.90;;;;;;5139549;27;19923;-87
2021/08/13 08:01:03;;;;;;;;;;;18.90;99.90;;;;;;5135197;27;19934;-87
2021/08/13 08:03:28;;;;;;;;;;;19.00;99.90;;;;;;5135680;27;19975;-88
2021/08/13 08:05:54;;;;;;;;;;;19.00;99.90;;;;;;5138233;27;19928;-87
2021/08/13 08:08:20;;;;;;;;;;;18.90;99.90;;;;;;5145804;27;19926;-87
2021/08/13 08:10:47;;;;;;;;;;;18.90;99.90;;;;;;5135716;27;19930;-87
2021/08/13 08:13:13;;;;;;;;;;;19.00;99.90;;;;;;5135246;27;19923;-87
2021/08/13 08:15:39;;;;;;;;;;;19.00;99.90;;;;;;5130732;27;20414;-87
2021/08/13 08:18:05;;;;;;;;;;;19.00;99.90;;;;;;5137793;27;19947;-87
2021/08/13 08:20:31;;;;;;;;;;;19.00;99.90;;;;;;5132556;27;19958;-87
2021/08/13 08:22:57;;;;;;;;;;;19.00;99.90;;;;;;5140049;27;19931;-87
2021/08/13 08:25:22;;;;;;;;;;;19.00;99.90;;;;;;5131347;27;19930;-88
2021/08/13 08:27:48;;;;;;;;;;;19.00;99.90;;;;;;5131050;27;19970;-87
2021/08/13 08:30:14;;;;;;;;;;;19.00;99.90;;;;;;5139959;27;19926;-87
2021/08/13 08:32:40;;;;;;;;;;;19.00;99.90;;;;;;5138176;27;19928;-86
2021/08/13 08:35:06;;;;;;;;;;;19.00;99.90;;;;;;5147899;27;19923;-87
2021/08/13 08:37:32;;;;;;;;;;;19.10;99.90;;;;;;5137737;27;19930;-86
2021/08/13 08:39:58;;;;;;;;;;;19.10;99.90;;;;;;5136233;27;20365;-88
2021/08/13 08:42:24;;;;;;;;;;;19.20;99.90;;;;;;5125612;27;19979;-90
2021/08/13 08:44:50;;;;;;;;;;;19.30;99.90;;;;;;5143380;27;19923;-89
2021/08/13 08:47:16;;;;;;;;;;;19.30;99.90;;;;;;5123599;27;19923;-87
2021/08/13 08:49:43;;;;;;;;;;;19.30;99.90;;;;;;5129946;27;19948;-87
2021/08/13 08:52:09;;;;;;;;;;;19.30;99.90;;;;;;5132969;27;20026;-87
2021/08/13 08:54:36;;;;;;;;;;;19.30;99.90;;;;;;5136274;27;19922;-88
2021/08/13 08:57:06;;;;;;;;;;;19.40;99.90;;;;;;5137160;27;19923;-87
2021/08/13 08:59:31;;;;;;;;;;;19.30;99.90;;;;;;5139872;27;19924;-88
2021/08/13 09:01:57;;;;;;;;;;;19.40;99.90;;;;;;5136556;27;19930;-87
2021/08/13 09:04:23;;;;;;;;;;;19.40;99.90;;;;;;5144399;27;19952;-88
2021/08/13 09:06:49;;;;;;;;;;;19.50;99.90;;;;;;5142150;27;20326;-88
2021/08/13 09:09:15;;;;;;;;;;;19.60;99.90;;;;;;5136900;27;20372;-87
2021/08/13 09:11:41;;;;;;;;;;;19.70;99.90;;;;;;5139199;27;19927;-88
2021/08/13 09:14:08;;;;;;;;;;;19.70;99.90;;;;;;5141770;27;19930;-87
2021/08/13 09:16:34;;;;;;;;;;;19.70;99.90;;;;;;5155733;27;19919;-88
2021/08/13 09:19:08;;;;;;;;;;;19.60;99.90;;;;;;5140757;27;19930;-88
2021/08/13 09:21:34;;;;;;;;;;;19.60;99.90;;;;;;5137963;27;19973;-88
2021/08/13 09:24:10;;;;;;;;;;;19.60;99.90;;;;;;5134895;27;19983;-89
2021/08/13 09:26:41;;;;;;;;;;;19.70;99.90;;;;;;5136702;27;19930;-89
2021/08/13 09:29:07;;;;;;;;;;;19.70;99.90;;;;;;5140270;27;19923;-88
2021/08/13 09:31:34;;;;;;;;;;;19.70;99.90;;;;;;5141052;27;19922;-88
2021/08/13 09:34:10;;;;;;;;;;;19.80;99.90;;;;;;5137809;27;20410;-89
2021/08/13 09:36:37;;;;;;;;;;;19.80;99.90;;;;;;5160809;27;19923;-89
2021/08/13 09:39:05;;;;;;;;;;;19.80;99.90;;;;;;5145082;27;19927;-88
2021/08/13 09:41:42;;;;;;;;;;;19.80;99.90;;;;;;5140890;27;20017;-89
2021/08/13 09:44:08;;;;;;;;;;;19.80;99.90;;;;;;5135282;27;19923;-87
2021/08/13 09:46:33;;;;;;;;;;;19.80;99.90;;;;;;5164811;27;19934;-89
2021/08/13 09:49:15;;;;;;;;;;;19.80;99.90;;;;;;5158075;27;20301;-89
2021/08/13 09:51:41;;;;;;;;;;;19.70;99.90;;;;;;5141327;27;20425;-86
2021/08/13 09:54:08;;;;;;;;;;;19.70;99.90;;;;;;5141389;27;20015;-87
2021/08/13 09:56:34;;;;;;;;;;;19.70;99.90;;;;;;5131676;27;19970;-88
2021/08/13 09:59:07;;;;;;;;;;;19.80;99.90;;;;;;5147434;27;19919;-86
2021/08/13 10:01:37;;;;;;;;;;;19.80;99.90;;;;;;5150836;27;19930;-89
2021/08/13 10:04:04;;;;;;;;;;;19.80;99.90;;;;;;5162490;27;19922;-88
2021/08/13 10:06:30;;;;;;;;;;;19.80;99.90;;;;;;5166431;27;20009;-87
2021/08/13 10:08:56;;;;;;;;;;;19.80;99.90;;;;;;5136163;27;20074;-87
2021/08/13 10:11:21;;;;;;;;;;;19.80;99.90;;;;;;5165547;27;20031;-87
2021/08/13 10:13:47;;;;;;;;;;;19.80;99.90;;;;;;5131873;27;20009;-87
2021/08/13 10:16:23;;;;;;;;;;;19.80;99.90;;;;;;5144690;27;19926;-87
2021/08/13 10:18:55;;;;;;;;;;;19.80;99.90;;;;;;5154527;27;19923;-87
2021/08/13 10:21:24;;;;;;;;;;;19.80;99.90;;;;;;5165116;27;19938;-87
2021/08/13 10:23:50;;;;;;;;;;;19.80;99.90;;;;;;5125420;27;19975;-88
2021/08/13 10:26:17;;;;;;;;;;;19.80;99.90;;;;;;5142005;27;19930;-88
2021/08/13 10:28:44;;;;;;;;;;;19.80;99.90;;;;;;5131634;27;19930;-88
2021/08/13 10:31:10;;;;;;;;;;;19.70;99.90;;;;;;5129981;27;20651;-88
2021/08/13 10:33:36;;;;;;;;;;;19.70;99.90;;;;;;5139998;27;20293;-88
2021/08/13 10:36:03;;;;;;;;;;;19.70;99.90;;;;;;5131252;27;19933;-88
2021/08/13 10:38:29;;;;;;;;;;;19.70;99.90;;;;;;5166168;27;19923;-88
2021/08/13 10:40:55;;;;;;;;;;;19.70;99.90;;;;;;5130923;27;20397;-87
2021/08/13 10:43:23;;;;;;;;;;;19.70;99.90;;;;;;5155154;27;19918;-87
2021/08/13 10:45:51;;;;;;;;;;;19.60;99.90;;;;;;5159493;27;19949;-87
2021/08/13 10:48:24;;;;;;;;;;;19.60;99.90;;;;;;5157019;27;19925;-88
2021/08/13 10:50:55;;;;;;;;;;;19.60;99.90;;;;;;5148916;27;20346;-88
2021/08/13 10:53:28;;;;;;;;;;;19.60;99.90;;;;;;5150423;27;19918;-88
2021/08/13 10:55:53;;;;;;;;;;;19.60;99.90;;;;;;5150874;27;19923;-89
2021/08/13 10:58:41;;;;;;;;;;;19.60;99.90;;;;;;5144442;27;20259;-86
2021/08/13 11:01:21;;;;;;;;;;;19.70;99.90;;;;;;5157753;27;19930;-86
2021/08/13 11:03:53;;;;;;;;;;;19.70;99.90;;;;;;5158833;27;19926;-86
2021/08/13 11:06:37;;;;;;;;;;;19.80;99.90;;;;;;5139526;27;20310;-86
2021/08/13 11:09:06;;;;;;;;;;;19.80;99.90;;;;;;5142034;27;19934;-86
2021/08/13 11:11:53;;;;;;;;;;;19.80;99.90;;;;;;5156333;27;19922;-87
2021/08/13 11:14:22;;;;;;;;;;;19.70;99.90;;;;;;5163312;27;19923;-87
2021/08/13 11:16:48;;;;;;;;;;;19.80;99.90;;;;;;5160101;27;19918;-88
2021/08/13 11:19:14;;;;;;;;;;;19.90;99.90;;;;;;5144475;27;19923;-86
2021/08/13 11:21:41;;;;;;;;;;;19.90;99.90;;;;;;5138162;27;19927;-85
2021/08/13 11:24:08;;;;;;;;;;;19.90;99.90;;;;;;5159723;27;19948;-86
2021/08/13 11:26:58;;;;;;;;;;;19.80;99.90;;;;;;5140863;27;20427;-87
2021/08/13 11:29:27;;;;;;;;;;;19.80;99.90;;;;;;5138100;27;19919;-86
2021/08/13 11:31:53;;;;;;;;;;;19.90;99.90;;;;;;5158801;27;19923;-86
2021/08/13 11:34:37;;;;;;;;;;;19.90;99.90;;;;;;5159834;27;19923;-87
2021/08/13 11:37:03;;;;;;;;;;;19.90;99.90;;;;;;5157188;27;19927;-86
2021/08/13 11:39:47;;;;;;;;;;;20.00;99.90;;;;;;5123668;27;19945;-86
2021/08/13 11:42:13;;;;;;;;;;;20.10;99.90;;;;;;5144313;27;20514;-87
2021/08/13 11:44:39;;;;;;;;;;;20.10;99.90;;;;;;5121733;27;20004;-87
2021/08/13 11:47:05;;;;;;;;;;;20.20;99.90;;;;;;5138375;27;19945;-87
2021/08/13 11:49:31;;;;;;;;;;;20.20;99.90;;;;;;5160574;27;19930;-87
2021/08/13 11:51:57;;;;;;;;;;;20.20;99.90;;;;;;5153516;27;19923;-87
2021/08/13 11:54:24;;;;;;;;;;;20.20;99.90;;;;;;5145438;27;20418;-87
2021/08/13 11:56:49;;;;;;;;;;;20.20;99.90;;;;;;5164930;27;19919;-86
2021/08/13 11:59:15;;;;;;;;;;;20.20;99.90;;;;;;5145822;27;20449;-91
2021/08/13 12:01:48;;;;;;;;;;;20.20;99.90;;;;;;5135962;27;19927;-90
2021/08/13 12:04:20;;;;;;;;;;;20.20;99.90;;;;;;5160022;27;20404;-89
2021/08/13 12:07:03;;;;;;;;;;;20.30;99.90;;;;;;5141207;27;19949;-87
2021/08/13 12:09:35;;;;;;;;;;;20.30;99.90;;;;;;5166610;27;19934;-88
2021/08/13 12:12:01;;;;;;;;;;;20.30;99.90;;;;;;5159633;27;19923;-88
2021/08/13 12:14:27;;;;;;;;;;;20.40;99.90;;;;;;5161610;27;20005;-87
2021/08/13 12:16:53;;;;;;;;;;;20.40;99.90;;;;;;5160000;27;20014;-88
2021/08/13 12:19:20;;;;;;;;;;;20.50;99.90;;;;;;5159769;27;19923;-87
2021/08/13 12:21:56;;;;;;;;;;;20.50;99.90;;;;;;5141005;27;19919;-88
2021/08/13 12:24:28;;;;;;;;;;;20.50;99.90;;;;;;5160794;27;19927;-88
2021/08/13 12:26:55;;;;;;;;;;;20.50;99.90;;;;;;5137466;27;20289;-86
2021/08/13 12:29:25;;;;;;;;;;;20.50;99.90;;;;;;5169067;27;20373;-90
2021/08/13 12:31:51;;;;;;;;;;;20.50;99.90;;;;;;5136513;27;19926;-87
2021/08/13 12:34:19;;;;;;;;;;;20.50;99.90;;;;;;5136438;27;19970;-89
2021/08/13 12:36:45;;;;;;;;;;;20.50;99.90;;;;;;5138377;27;20431;-87
2021/08/13 12:39:20;;;;;;;;;;;20.40;99.90;;;;;;5160532;27;20393;-87
2021/08/13 12:41:45;;;;;;;;;;;20.50;99.90;;;;;;5160693;27;20014;-88
2021/08/13 12:44:11;;;;;;;;;;;20.50;99.90;;;;;;5134992;27;20026;-87
2021/08/13 12:46:37;;;;;;;;;;;20.50;99.90;;;;;;5169021;27;19927;-88
2021/08/13 12:49:04;;;;;;;;;;;20.50;99.90;;;;;;5137592;27;19923;-87
2021/08/13 12:51:31;;;;;;;;;;;20.50;99.90;;;;;;5147549;27;19919;-87
2021/08/13 12:53:57;;;;;;;;;;;20.50;99.90;;;;;;5162193;27;19975;-86
2021/08/13 12:56:23;;;;;;;;;;;20.50;99.90;;;;;;5158446;27;20437;-85
2021/08/13 12:58:49;;;;;;;;;;;20.60;99.90;;;;;;5169374;27;19929;-86
2021/08/13 13:01:41;;;;;;;;;;;20.50;99.90;;;;;;5138548;27;19948;-87
2021/08/13 13:04:11;;;;;;;;;;;20.60;99.90;;;;;;5155260;27;19923;-86
2021/08/13 13:06:39;;;;;;;;;;;20.70;99.90;;;;;;5152236;27;21317;-85
2021/08/13 13:09:05;;;;;;;;;;;20.80;99.90;;;;;;5169485;27;20294;-86
2021/08/13 13:11:31;;;;;;;;;;;20.80;99.90;;;;;;5160556;27;19935;-85
2021/08/13 13:13:58;;;;;;;;;;;20.80;99.90;;;;;;5121823;27;19919;-86
2021/08/13 13:16:24;;;;;;;;;;;20.90;99.90;;;;;;5156689;27;20030;-87
2021/08/13 13:18:49;;;;;;;;;;;20.90;99.90;;;;;;5137272;27;20480;-86
2021/08/13 13:21:19;;;;;;;;;;;20.90;99.90;;;;;;5136712;27;19923;-88
2021/08/13 13:23:45;;;;;;;;;;;20.90;99.90;;;;;;5159050;27;20354;-88
2021/08/13 13:26:11;;;;;;;;;;;20.90;99.90;;;;;;5139969;27;19923;-90
2021/08/13 13:28:37;;;;;;;;;;;20.90;99.90;;;;;;5134147;27;19961;-90
2021/08/13 13:31:20;;;;;;;;;;;20.90;99.90;;;;;;5146312;27;20359;-96
2021/08/13 13:34:06;;;;;;;;;;;21.00;99.90;;;;;;5136860;27;20017;-93
2021/08/13 13:36:31;;;;;;;;;;;21.00;99.90;;;;;;5143832;27;19954;-93
2021/08/13 13:38:59;;;;;;;;;;;21.00;99.90;;;;;;5126034;27;20011;-96
2021/08/13 13:41:25;;;;;;;;;;;21.00;99.90;;;;;;5129839;27;19922;-88
2021/08/13 13:43:51;;;;;;;;;;;21.00;99.90;;;;;;5141450;27;19929;-87
2021/08/13 13:46:18;;;;;;;;;;;21.00;99.90;;;;;;5141159;27;20401;-91
2021/08/13 13:48:43;;;;;;;;;;;21.00;99.90;;;;;;5135346;27;19929;-90
2021/08/13 13:51:09;;;;;;;;;;;21.00;99.90;;;;;;5151115;27;19919;-92
2021/08/13 13:53:35;;;;;;;;;;;20.90;99.90;;;;;;5107425;27;20021;-92
2021/08/13 13:56:01;;;;;;;;;;;20.90;99.90;;;;;;5110215;27;19967;-93
2021/08/13 13:58:27;;;;;;;;;;;20.90;99.90;;;;;;5116417;27;19919;-91
2021/08/13 14:00:52;;;;;;;;;;;20.80;99.90;;;;;;5101495;27;20021;-92
2021/08/13 14:03:18;;;;;;;;;;;20.80;99.90;;;;;;5147726;27;19991;-90
2021/08/13 14:05:44;;;;;;;;;;;20.90;99.90;;;;;;5127320;27;19958;-89
2021/08/13 14:08:09;;;;;;;;;;;21.00;99.90;;;;;;5130240;27;19945;-89
2021/08/13 14:10:35;;;;;;;;;;;21.00;99.90;;;;;;5125769;27;19927;-88
2021/08/13 14:13:05;;;;;;;;;;;21.00;99.90;;;;;;5135570;27;19926;-89
2021/08/13 14:15:32;;;;;;;;;;;20.90;99.90;;;;;;5135529;27;19925;-90
2021/08/13 14:17:58;;;;;;;;;;;21.00;99.90;;;;;;5120403;27;20009;-88